createdAt,value
2019-01-31T00:02:15.021Z,99575.75
2019-01-31T00:05:32.854Z,99573.17
2019-01-31T00:08:46.465Z,99569.80
2019-01-31T00:12:38.445Z,99564.00
2019-01-31T00:15:59.765Z,99569.94
2019-01-31T00:19:05.630Z,99570.91
2019-01-31T00:22:27.742Z,99573.98
2019-01-31T00:26:19.998Z,99572.53
2019-01-31T00:29:08.473Z,99567.69
2019-01-31T00:32:39.686Z,99564.81
2019-01-31T00:35:52.354Z,99568.98
2019-01-31T00:39:31.109Z,99568.97
2019-01-31T00:43:06.517Z,99567.05
2019-01-31T00:46:29.095Z,99570.92
2019-01-31T00:49:58.279Z,99569.78
2019-01-31T00:53:22.359Z,99570.58
2019-01-31T00:56:47.395Z,99581.66
2019-01-31T01:00:03.664Z,99579.45
2019-01-31T01:03:04.460Z,99585.38
2019-01-31T01:06:38.049Z,99594.84
2019-01-31T01:10:04.998Z,99587.13
2019-01-31T01:13:18.051Z,99590.52
2019-01-31T01:16:27.794Z,99593.89
2019-01-31T01:20:01.660Z,99595.66
2019-01-31T01:22:59.923Z,99595.48
2019-01-31T01:26:31.938Z,99596.30
2019-01-31T01:29:48.960Z,99602.91
2019-01-31T01:33:22.808Z,99610.60
2019-01-31T01:36:31.511Z,99599.36
2019-01-31T01:40:26.388Z,99602.72
2019-01-31T01:43:55.717Z,99607.23
2019-01-31T01:47:10.060Z,99613.83
2019-01-31T01:50:20.773Z,99611.56
2019-01-31T01:53:25.275Z,99609.34
2019-01-31T01:56:56.831Z,99613.68
2019-01-31T02:00:23.913Z,99612.72
2019-01-31T02:03:56.065Z,99606.91
2019-01-31T02:07:18.063Z,99610.61
2019-01-31T02:10:47.976Z,99609.34
2019-01-31T02:14:31.255Z,99610.14
2019-01-31T02:17:25.764Z,99615.11
2019-01-31T02:20:29.466Z,99611.89
2019-01-31T02:23:27.764Z,99611.24
2019-01-31T02:27:01.055Z,99615.11
2019-01-31T02:29:59.762Z,99616.08
2019-01-31T02:33:11.751Z,99617.05
2019-01-31T02:36:36.724Z,99624.75
2019-01-31T02:40:04.596Z,99624.44
2019-01-31T02:43:05.644Z,99621.88
2019-01-31T02:46:26.094Z,99621.86
2019-01-31T02:49:41.425Z,99624.09
2019-01-31T02:53:22.918Z,99621.05
2019-01-31T02:56:30.738Z,99620.08
2019-01-31T02:59:20.266Z,99619.76
2019-01-31T03:02:15.187Z,99627.97
2019-01-31T03:05:29.595Z,99637.92
2019-01-31T03:08:36.420Z,99628.91
2019-01-31T03:11:27.951Z,99631.66
2019-01-31T03:14:37.562Z,99636.31
2019-01-31T03:18:06.941Z,99640.01
2019-01-31T03:21:11.151Z,99646.94
2019-01-31T03:24:44.077Z,99644.35
2019-01-31T03:28:24.236Z,99650.95
2019-01-31T03:32:17.519Z,99643.36
2019-01-31T03:35:33.311Z,99655.58
2019-01-31T03:38:40.176Z,99654.45
2019-01-31T03:42:06.629Z,99651.57
2019-01-31T03:45:28.084Z,99654.64
2019-01-31T03:49:08.406Z,99656.89
2019-01-31T03:52:36.468Z,99656.73
2019-01-31T03:56:01.772Z,99650.48
2019-01-31T03:59:10.539Z,99646.92
2019-01-31T04:02:14.978Z,99652.70
2019-01-31T04:05:16.721Z,99656.58
2019-01-31T04:07:47.026Z,99660.44
2019-01-31T04:10:19.068Z,99662.17
2019-01-31T04:12:49.368Z,99670.39
2019-01-31T04:15:19.658Z,99674.89
2019-01-31T04:17:50.244Z,99670.56
2019-01-31T04:20:20.451Z,99674.05
2019-01-31T04:22:50.987Z,99674.25
2019-01-31T04:25:21.275Z,99685.48
2019-01-31T04:27:51.543Z,99684.02
2019-01-31T04:30:22.159Z,99680.20
2019-01-31T04:32:52.462Z,99680.52
2019-01-31T04:35:22.729Z,99683.41
2019-01-31T04:37:53.061Z,99680.03
2019-01-31T04:40:31.074Z,99693.52
2019-01-31T04:42:55.307Z,99687.87
2019-01-31T04:45:25.611Z,99692.06
2019-01-31T04:47:56.465Z,99692.23
2019-01-31T04:50:27.251Z,99694.50
2019-01-31T04:52:57.569Z,99694.46
2019-01-31T04:55:27.830Z,99698.67
2019-01-31T04:57:58.127Z,99702.50
2019-01-31T05:00:28.500Z,99690.28
2019-01-31T05:02:58.821Z,99683.39
2019-01-31T05:05:29.020Z,99694.16
2019-01-31T05:07:59.331Z,99691.27
2019-01-31T05:10:29.572Z,99688.70
2019-01-31T05:13:00.108Z,99689.79
2019-01-31T05:15:30.454Z,99691.10
2019-01-31T05:18:00.730Z,99692.23
2019-01-31T05:20:31.113Z,99694.31
2019-01-31T05:23:01.925Z,99698.64
2019-01-31T05:25:32.267Z,99707.95
2019-01-31T05:28:02.605Z,99698.48
2019-01-31T05:30:32.961Z,99707.64
2019-01-31T05:33:03.195Z,99706.34
2019-01-31T05:35:34.617Z,99705.41
2019-01-31T05:38:05.968Z,99708.59
2019-01-31T05:40:36.259Z,99711.50
2019-01-31T05:43:06.628Z,99708.11
2019-01-31T05:45:36.972Z,99704.92
2019-01-31T05:48:07.300Z,99709.56
2019-01-31T05:50:37.563Z,99710.52
2019-01-31T05:53:08.061Z,99709.90
2019-01-31T05:55:38.357Z,99709.58
2019-01-31T05:58:08.642Z,99716.30
2019-01-31T06:00:39.970Z,99716.33
2019-01-31T06:03:10.673Z,99720.50
2019-01-31T06:05:40.947Z,99720.19
2019-01-31T06:08:11.303Z,99719.70
2019-01-31T06:10:45.470Z,99721.13
2019-01-31T06:13:15.952Z,99716.97
2019-01-31T06:15:46.423Z,99719.53
2019-01-31T06:18:16.718Z,99722.27
2019-01-31T06:20:46.983Z,99724.33
2019-01-31T06:23:17.252Z,99724.34
2019-01-31T06:25:47.558Z,99723.55
2019-01-31T06:28:17.870Z,99725.97
2019-01-31T06:30:48.195Z,99725.95
2019-01-31T06:33:18.466Z,99726.28
2019-01-31T06:35:49.062Z,99724.53
2019-01-31T06:38:19.396Z,99731.91
2019-01-31T06:40:49.701Z,99724.70
2019-01-31T06:43:19.989Z,99732.73
2019-01-31T06:45:50.516Z,99730.30
2019-01-31T06:48:20.853Z,99731.92
2019-01-31T06:50:51.432Z,99737.56
2019-01-31T06:53:21.733Z,99735.78
2019-01-31T06:55:52.072Z,99739.95
2019-01-31T06:58:22.361Z,99747.04
2019-01-31T07:00:52.696Z,99736.43
2019-01-31T07:03:23.237Z,99742.05
2019-01-31T07:05:53.512Z,99737.86
2019-01-31T07:08:23.976Z,99743.34
2019-01-31T07:10:54.263Z,99744.13
2019-01-31T07:13:24.532Z,99741.72
2019-01-31T07:15:54.873Z,99748.14
2019-01-31T07:18:25.126Z,99746.72
2019-01-31T07:20:55.663Z,99754.75
2019-01-31T07:23:26.166Z,99757.17
2019-01-31T07:25:56.442Z,99756.84
2019-01-31T07:28:26.907Z,99756.06
2019-01-31T07:30:57.249Z,99752.84
2019-01-31T07:33:27.537Z,99765.20
2019-01-31T07:35:57.874Z,99762.63
2019-01-31T07:38:28.439Z,99764.88
2019-01-31T07:40:58.660Z,99763.95
2019-01-31T07:43:28.937Z,99764.27
2019-01-31T07:45:59.520Z,99766.51
2019-01-31T07:48:29.791Z,99769.86
2019-01-31T07:51:01.551Z,99770.86
2019-01-31T07:53:31.944Z,99777.79
2019-01-31T07:56:02.253Z,99780.99
2019-01-31T07:58:32.528Z,99781.30
2019-01-31T08:01:02.918Z,99778.73
2019-01-31T08:03:33.191Z,99780.98
2019-01-31T08:06:03.488Z,99784.19
2019-01-31T08:08:34.121Z,99789.34
2019-01-31T08:11:04.461Z,99787.27
2019-01-31T08:13:34.803Z,99786.94
2019-01-31T08:16:05.342Z,99785.53
2019-01-31T08:18:35.644Z,99800.63
2019-01-31T08:21:06.045Z,99799.81
2019-01-31T08:23:36.428Z,99795.64
2019-01-31T08:26:06.854Z,99803.67
2019-01-31T08:28:37.126Z,99808.96
2019-01-31T08:31:08.095Z,99816.36
2019-01-31T08:33:38.386Z,99813.15
2019-01-31T08:36:08.708Z,99815.88
2019-01-31T08:38:39.190Z,99817.16
2019-01-31T08:41:13.376Z,99819.09
2019-01-31T08:43:46.513Z,99820.88
2019-01-31T08:46:15.722Z,99820.05
2019-01-31T08:48:45.990Z,99824.88
2019-01-31T08:51:16.250Z,99833.10
2019-01-31T08:53:46.855Z,99832.13
2019-01-31T08:56:17.172Z,99831.02
2019-01-31T08:58:47.434Z,99835.04
2019-01-31T09:01:18.069Z,99838.24
2019-01-31T09:03:48.343Z,99829.42
2019-01-31T09:06:19.049Z,99840.84
2019-01-31T09:08:49.363Z,99837.80
2019-01-31T09:11:19.648Z,99844.86
2019-01-31T09:13:50.261Z,99849.22
2019-01-31T09:16:20.606Z,99846.45
2019-01-31T09:18:50.928Z,99848.89
2019-01-31T09:21:47.106Z,99852.75
2019-01-31T09:25:41.792Z,99853.11
2019-01-31T09:28:37.337Z,99857.76
2019-01-31T09:31:50.049Z,99867.41
2019-01-31T09:34:37.359Z,99865.15
2019-01-31T09:37:59.765Z,99866.60
2019-01-31T09:41:18.096Z,99873.02
2019-01-31T09:44:59.623Z,99874.46
2019-01-31T09:48:19.706Z,99878.81
2019-01-31T09:51:46.642Z,99875.77
2019-01-31T09:54:50.959Z,99879.47
2019-01-31T09:58:14.497Z,99874.36
2019-01-31T10:01:44.160Z,99882.22
2019-01-31T10:05:19.811Z,99888.64
2019-01-31T10:08:48.346Z,99895.07
2019-01-31T10:12:17.226Z,99893.63
2019-01-31T10:15:00.360Z,99900.58
2019-01-31T10:18:27.060Z,99894.67
2019-01-31T10:21:46.133Z,99903.52
2019-01-31T10:25:47.346Z,99907.65
2019-01-31T10:29:30.824Z,99909.59
2019-01-31T10:33:00.000Z,99908.80
2019-01-31T10:36:21.100Z,99904.47
2019-01-31T10:39:35.729Z,99902.53
2019-01-31T10:42:52.678Z,99909.30
2019-01-31T10:46:17.228Z,99903.70
2019-01-31T10:49:19.414Z,99903.53
2019-01-31T10:52:40.146Z,99903.22
2019-01-31T10:56:18.687Z,99906.61
2019-01-31T10:59:34.000Z,99905.30
2019-01-31T11:03:01.942Z,99906.41
2019-01-31T11:06:45.487Z,99909.03
2019-01-31T11:10:07.546Z,99912.56
2019-01-31T11:13:36.395Z,99915.45
2019-01-31T11:16:26.922Z,99909.36
2019-01-31T11:19:38.599Z,99911.61
2019-01-31T11:23:10.487Z,99922.06
2019-01-31T11:26:37.598Z,99916.47
2019-01-31T11:30:34.456Z,99915.48
2019-01-31T11:33:52.225Z,99921.77
2019-01-31T11:37:17.131Z,99915.80
2019-01-31T11:40:41.553Z,99921.24
2019-01-31T11:43:39.257Z,99918.88
2019-01-31T11:47:06.863Z,99926.77
2019-01-31T11:50:25.743Z,99930.77
2019-01-31T11:53:44.217Z,99932.23
2019-01-31T11:57:32.406Z,99933.84
2019-01-31T12:00:02.777Z,99937.73
2019-01-31T12:02:33.081Z,99934.81
2019-01-31T12:05:05.353Z,99937.38
2019-01-31T12:07:36.584Z,99928.56
2019-01-31T12:10:07.862Z,99920.48
2019-01-31T12:12:38.287Z,99922.90
2019-01-31T12:15:09.401Z,99919.69
2019-01-31T12:17:39.817Z,99922.73
2019-01-31T12:20:11.774Z,99922.58
2019-01-31T12:22:41.995Z,99921.12
2019-01-31T12:25:13.008Z,99924.02
2019-01-31T12:27:43.348Z,99919.98
2019-01-31T12:30:21.901Z,99914.36
2019-01-31T12:32:52.161Z,99913.22
2019-01-31T12:35:22.526Z,99920.95
2019-01-31T12:37:52.773Z,99914.37
2019-01-31T12:40:23.340Z,99914.51
2019-01-31T12:42:53.880Z,99916.30
2019-01-31T12:45:24.108Z,99908.41
2019-01-31T12:47:54.366Z,99909.69
2019-01-31T12:50:27.914Z,99909.05
2019-01-31T12:52:58.192Z,99899.55
2019-01-31T12:55:28.473Z,99902.94
2019-01-31T12:57:58.805Z,99896.95
2019-01-31T13:00:30.243Z,99897.70
2019-01-31T13:03:00.675Z,99897.07
2019-01-31T13:05:31.010Z,99897.98
2019-01-31T13:08:01.332Z,99894.39
2019-01-31T13:10:31.601Z,99883.58
2019-01-31T13:13:02.135Z,99890.48
2019-01-31T13:15:32.414Z,99894.58
2019-01-31T13:18:03.062Z,99896.47
2019-01-31T13:20:33.439Z,99893.51
2019-01-31T13:23:03.746Z,99893.02
2019-01-31T13:25:34.134Z,99889.17
2019-01-31T13:28:04.555Z,99887.45
2019-01-31T13:30:34.845Z,99888.07
2019-01-31T13:33:05.415Z,99884.47
2019-01-31T13:35:35.736Z,99883.47
2019-01-31T13:38:05.950Z,99878.22
2019-01-31T13:40:36.255Z,99880.25
2019-01-31T13:43:06.647Z,99879.63
2019-01-31T13:45:38.649Z,99880.37
2019-01-31T13:48:12.948Z,99881.94
2019-01-31T13:50:43.239Z,99886.16
2019-01-31T13:53:13.646Z,99886.77
2019-01-31T13:55:44.003Z,99882.10
2019-01-31T13:58:14.337Z,99888.15
2019-01-31T14:00:44.628Z,99887.41
2019-01-31T14:03:14.951Z,99885.29
2019-01-31T14:05:45.356Z,99885.55
2019-01-31T14:08:15.861Z,99884.48
2019-01-31T14:10:46.147Z,99887.91
2019-01-31T14:13:16.636Z,99889.31
2019-01-31T14:15:46.886Z,99892.48
2019-01-31T14:18:17.183Z,99889.84
2019-01-31T14:20:47.498Z,99892.16
2019-01-31T14:23:17.936Z,99888.58
2019-01-31T14:25:48.614Z,99893.35
2019-01-31T14:28:18.985Z,99889.30
2019-01-31T14:30:49.329Z,99891.14
2019-01-31T14:33:26.402Z,99898.68
2019-01-31T14:36:00.047Z,99893.75
2019-01-31T14:38:30.331Z,99898.05
2019-01-31T14:41:00.881Z,99892.73
2019-01-31T14:43:31.259Z,99900.34
2019-01-31T14:46:01.611Z,99900.04
2019-01-31T14:48:32.270Z,99901.20
2019-01-31T14:51:02.674Z,99904.85
2019-01-31T14:53:33.082Z,99900.06
2019-01-31T14:56:03.382Z,99902.98
2019-01-31T14:58:33.896Z,99907.86
2019-01-31T15:01:04.139Z,99899.64
2019-01-31T15:03:34.442Z,99896.45
2019-01-31T15:06:05.190Z,99897.58
2019-01-31T15:08:35.486Z,99900.66
2019-01-31T15:11:05.869Z,99897.31
2019-01-31T15:13:36.208Z,99903.60
2019-01-31T15:16:07.049Z,99902.50
2019-01-31T15:18:37.354Z,99895.56
2019-01-31T15:21:12.154Z,99894.63
2019-01-31T15:23:42.453Z,99894.95
2019-01-31T15:26:12.817Z,99892.86
2019-01-31T15:28:43.253Z,99887.37
2019-01-31T15:31:13.731Z,99891.09
2019-01-31T15:33:44.071Z,99885.61
2019-01-31T15:36:14.446Z,99887.25
2019-01-31T15:38:44.777Z,99886.16
2019-01-31T15:41:15.081Z,99888.73
2019-01-31T15:43:45.408Z,99889.20
2019-01-31T15:46:18.017Z,99893.07
2019-01-31T15:48:48.472Z,99899.69
2019-01-31T15:51:18.797Z,99894.53
2019-01-31T15:53:49.100Z,99891.97
2019-01-31T15:56:19.641Z,99892.78
2019-01-31T15:58:50.232Z,99894.72
2019-01-31T16:01:20.790Z,99898.73
2019-01-31T16:03:51.333Z,99896.16
2019-01-31T16:06:21.649Z,99900.52
2019-01-31T16:08:51.954Z,99901.33
2019-01-31T16:11:22.251Z,99906.00
2019-01-31T16:13:53.933Z,99908.73
2019-01-31T16:16:24.193Z,99896.18
2019-01-31T16:18:54.480Z,99910.19
2019-01-31T16:21:24.897Z,99918.08
2019-01-31T16:23:56.149Z,99916.80
2019-01-31T16:26:26.495Z,99916.30
2019-01-31T16:28:56.864Z,99909.86
2019-01-31T16:31:27.184Z,99916.61
2019-01-31T16:33:57.448Z,99914.03
2019-01-31T16:36:27.805Z,99913.87
2019-01-31T16:38:58.092Z,99920.78
2019-01-31T16:41:28.469Z,99918.97
2019-01-31T16:43:59.006Z,99924.13
2019-01-31T16:46:29.338Z,99926.20
2019-01-31T16:48:59.597Z,99925.56
2019-01-31T16:51:30.320Z,99928.30
2019-01-31T16:54:04.007Z,99924.92
2019-01-31T16:56:34.341Z,99924.89
2019-01-31T16:59:05.003Z,99921.99
2019-01-31T17:01:35.433Z,99920.22
2019-01-31T17:04:05.706Z,99920.53
2019-01-31T17:06:36.084Z,99928.72
2019-01-31T17:09:09.464Z,99926.75
2019-01-31T17:11:39.719Z,99923.23
2019-01-31T17:14:10.073Z,99917.45
2019-01-31T17:16:40.340Z,99916.63
2019-01-31T17:19:10.581Z,99920.88
2019-01-31T17:21:40.981Z,99922.60
2019-01-31T17:24:11.330Z,99916.95
2019-01-31T17:26:41.532Z,99922.70
2019-01-31T17:29:11.940Z,99920.79
2019-01-31T17:31:42.149Z,99923.98
2019-01-31T17:34:12.491Z,99917.51
2019-01-31T17:36:45.671Z,99919.09
2019-01-31T17:39:14.845Z,99924.11
2019-01-31T17:41:45.141Z,99925.05
2019-01-31T17:44:15.564Z,99924.23
2019-01-31T17:46:45.848Z,99920.83
2019-01-31T17:49:16.191Z,99919.22
2019-01-31T17:51:46.738Z,99923.57
2019-01-31T17:54:16.999Z,99922.25
2019-01-31T17:56:47.301Z,99922.27
2019-01-31T17:59:17.828Z,99919.89
2019-01-31T18:01:48.079Z,99917.59
2019-01-31T18:04:18.373Z,99915.19
2019-01-31T18:06:48.729Z,99917.27
2019-01-31T18:09:19.006Z,99912.26
2019-01-31T18:11:49.302Z,99909.98
2019-01-31T18:14:19.796Z,99909.02
2019-01-31T18:16:50.074Z,99911.09
2019-01-31T18:19:20.303Z,99907.05
2019-01-31T18:21:50.600Z,99903.53
2019-01-31T18:24:20.904Z,99900.63
2019-01-31T18:26:51.208Z,99906.58
2019-01-31T18:29:21.651Z,99906.21
2019-01-31T18:31:51.987Z,99898.21
2019-01-31T18:34:22.536Z,99898.57
2019-01-31T18:36:52.940Z,99895.17
2019-01-31T18:39:23.234Z,99895.78
2019-01-31T18:41:53.508Z,99900.14
2019-01-31T18:44:23.833Z,99897.38
2019-01-31T18:46:54.116Z,99895.19
2019-01-31T18:49:24.441Z,99894.86
2019-01-31T18:51:54.902Z,99898.53
2019-01-31T18:54:25.276Z,99897.92
2019-01-31T18:56:55.559Z,99896.92
2019-01-31T18:59:25.944Z,99889.88
2019-01-31T19:01:56.224Z,99900.13
2019-01-31T19:04:27.925Z,99903.33
2019-01-31T19:06:59.091Z,99900.11
2019-01-31T19:09:29.400Z,99900.79
2019-01-31T19:11:59.744Z,99899.81
2019-01-31T19:14:30.739Z,99900.43
2019-01-31T19:17:01.018Z,99896.44
2019-01-31T19:19:31.301Z,99899.45
2019-01-31T19:22:01.624Z,99898.02
2019-01-31T19:24:31.887Z,99895.49
2019-01-31T19:27:02.192Z,99896.28
2019-01-31T19:29:32.531Z,99892.89
2019-01-31T19:32:02.808Z,99893.67
2019-01-31T19:34:33.064Z,99898.34
2019-01-31T19:37:03.458Z,99898.53
2019-01-31T19:39:35.791Z,99900.45
2019-01-31T19:42:05.860Z,99896.45
2019-01-31T19:44:36.347Z,99897.55
2019-01-31T19:47:06.602Z,99898.48
2019-01-31T19:49:36.871Z,99900.11
2019-01-31T19:52:07.215Z,99897.17
2019-01-31T19:54:37.791Z,99893.16
2019-01-31T19:57:08.059Z,99903.45
2019-01-31T19:59:38.669Z,99898.74
2019-01-31T20:02:08.934Z,99894.74
2019-01-31T20:04:39.254Z,99894.81
2019-01-31T20:07:09.574Z,99898.15
2019-01-31T20:09:39.862Z,99896.21
2019-01-31T20:12:10.234Z,99892.56
2019-01-31T20:14:40.533Z,99893.47
2019-01-31T20:17:10.988Z,99895.56
2019-01-31T20:19:41.294Z,99897.17
2019-01-31T20:22:11.670Z,99889.38
2019-01-31T20:24:41.930Z,99894.42
2019-01-31T20:27:12.175Z,99894.48
2019-01-31T20:29:43.018Z,99893.13
2019-01-31T20:32:13.547Z,99888.38
2019-01-31T20:34:43.864Z,99890.51
2019-01-31T20:37:14.153Z,99884.85
2019-01-31T20:39:44.453Z,99888.61
2019-01-31T20:42:14.727Z,99888.11
2019-01-31T20:44:45.498Z,99884.13
2019-01-31T20:47:15.984Z,99881.52
2019-01-31T20:49:46.198Z,99890.80
2019-01-31T20:52:16.552Z,99896.43
2019-01-31T20:54:46.836Z,99890.35
2019-01-31T20:57:17.122Z,99890.14
2019-01-31T20:59:47.682Z,99897.27
2019-01-31T21:02:17.962Z,99893.77
2019-01-31T21:04:48.233Z,99892.61
2019-01-31T21:07:18.575Z,99894.77
2019-01-31T21:09:48.806Z,99893.29
2019-01-31T21:12:19.012Z,99891.89
2019-01-31T21:14:49.313Z,99896.23
2019-01-31T21:17:19.562Z,99892.62
2019-01-31T21:19:49.824Z,99889.77
2019-01-31T21:22:20.181Z,99881.69
2019-01-31T21:24:50.435Z,99881.38
2019-01-31T21:27:20.723Z,99879.53
2019-01-31T21:29:51.300Z,99873.19
2019-01-31T21:32:21.647Z,99875.38
2019-01-31T21:34:51.892Z,99870.28
2019-01-31T21:37:22.296Z,99857.75
2019-01-31T21:39:52.590Z,99864.65
2019-01-31T21:42:22.845Z,99858.91
2019-01-31T21:44:53.094Z,99860.88
2019-01-31T21:47:23.375Z,99858.16
2019-01-31T21:49:53.586Z,99857.85
2019-01-31T21:52:23.838Z,99855.97
2019-01-31T21:54:54.361Z,99854.41
2019-01-31T21:57:24.634Z,99857.41
2019-01-31T21:59:54.966Z,99854.55
2019-01-31T22:02:25.266Z,99856.30
2019-01-31T22:04:55.788Z,99850.66
2019-01-31T22:07:26.138Z,99855.95
2019-01-31T22:09:56.340Z,99847.25
2019-01-31T22:12:26.580Z,99845.28
2019-01-31T22:14:56.934Z,99852.39
2019-01-31T22:17:27.392Z,99849.50
2019-01-31T22:19:57.673Z,99847.33
2019-01-31T22:22:27.937Z,99845.10
2019-01-31T22:24:58.192Z,99840.80
2019-01-31T22:27:28.446Z,99837.44
2019-01-31T22:29:58.715Z,99837.87
2019-01-31T22:32:29.037Z,99840.47
2019-01-31T22:34:59.379Z,99839.95
2019-01-31T22:37:29.707Z,99841.72
2019-01-31T22:39:59.984Z,99840.92
2019-01-31T22:42:30.248Z,99836.70
2019-01-31T22:45:00.618Z,99838.11
2019-01-31T22:47:31.256Z,99838.88
2019-01-31T22:50:01.709Z,99845.91
2019-01-31T22:52:32.357Z,99837.99
2019-01-31T22:55:02.572Z,99836.64
2019-01-31T22:57:32.891Z,99840.75
2019-01-31T23:00:11.760Z,99837.16
2019-01-31T23:02:42.015Z,99833.59
2019-01-31T23:05:12.290Z,99840.34
2019-01-31T23:07:42.610Z,99828.94
2019-01-31T23:10:13.101Z,99833.72
2019-01-31T23:12:43.268Z,99827.78
2019-01-31T23:15:13.690Z,99829.97
2019-01-31T23:17:43.997Z,99829.94
2019-01-31T23:20:14.550Z,99827.32
2019-01-31T23:22:44.915Z,99820.11
2019-01-31T23:25:15.510Z,99819.02
2019-01-31T23:27:45.719Z,99817.13
2019-01-31T23:30:16.260Z,99813.98
2019-01-31T23:32:46.815Z,99811.02
2019-01-31T23:35:17.194Z,99806.27
2019-01-31T23:37:47.577Z,99800.73
2019-01-31T23:40:17.872Z,99797.47
2019-01-31T23:42:48.171Z,99794.44
2019-01-31T23:45:18.539Z,99792.11
2019-01-31T23:47:49.396Z,99792.45
2019-01-31T23:50:19.983Z,99790.41
2019-01-31T23:52:50.329Z,99794.83
2019-01-31T23:55:20.642Z,99791.69
2019-01-31T23:57:50.899Z,99788.19
